Time;durP1;ratioP1;P1;durP2;ratioP2;P2;SDS_P1;SDS_P2;PMS_P1;PMS_P2;Temp;Humidity;BMP_temperature;BMP_pressure;BME280_temperature;BME280_humidity;BME280_pressure;Samples;Min_cycle;Max_cycle;Signal;HPM_P1;HPM_P2
2022/01/28 00:00:30;;;;;;;33.20;15.20;;;;;;;1.65;78.23;98391.23;106095;1274;112784;-69
2022/01/28 00:03:13;;;;;;;29.70;13.90;;;;;;;1.67;78.04;98394.64;106062;1277;96715;-70
2022/01/28 00:05:43;;;;;;;31.80;15.00;;;;;;;1.67;78.43;98393.39;106140;1274;108442;-71
2022/01/28 00:08:11;;;;;;;30.20;13.50;;;;;;;1.70;78.08;98396.42;106144;1274;99355;-69
2022/01/28 00:10:44;;;;;;;28.30;13.20;;;;;;;1.71;78.39;98395.13;106160;1274;99346;-69
2022/01/28 00:13:20;;;;;;;30.20;14.00;;;;;;;1.72;78.29;98399.98;106100;1273;112814;-70
2022/01/28 00:18:42;;;;;;;29.50;13.70;;;;;;;1.74;78.39;98394.31;106162;1274;107924;-70
2022/01/28 00:38:03;;;;;;;28.40;13.30;;;;;;;1.77;78.65;98378.25;106128;1274;99342;-70
2022/01/28 00:40:35;;;;;;;30.10;14.20;;;;;;;1.79;78.51;98375.20;106157;1274;114027;-70
2022/01/28 00:43:06;;;;;;;30.00;14.00;;;;;;;1.81;78.29;98374.96;106126;1274;97742;-71
2022/01/28 00:45:34;;;;;;;26.60;11.80;;;;;;;1.82;78.53;98372.78;106063;1273;107663;-68
2022/01/28 00:48:02;;;;;;;27.00;12.30;;;;;;;1.84;78.70;98370.04;106125;1274;99304;-69
2022/01/28 00:50:33;;;;;;;26.90;12.40;;;;;;;1.86;78.74;98369.27;106177;1274;99234;-69
2022/01/28 00:53:00;;;;;;;26.30;12.00;;;;;;;1.89;78.58;98371.56;106129;1274;113437;-70
2022/01/28 00:55:31;;;;;;;26.40;11.70;;;;;;;1.91;78.56;98366.06;106092;1274;99372;-70
2022/01/28 00:57:59;;;;;;;27.30;11.60;;;;;;;1.93;78.43;98362.48;106048;1274;107888;-71
2022/01/28 01:00:27;;;;;;;25.80;11.90;;;;;;;1.93;78.41;98357.38;106045;1274;99274;-69
2022/01/28 01:02:56;;;;;;;26.30;12.80;;;;;;;1.95;78.52;98353.78;106063;1273;100398;-70
2022/01/28 01:05:25;;;;;;;31.90;14.00;;;;;;;1.96;78.14;98348.71;106093;1274;112388;-70
2022/01/28 01:07:54;;;;;;;29.80;14.60;;;;;;;1.96;78.25;98344.85;106109;1274;99102;-70
2022/01/28 01:10:26;;;;;;;29.40;13.70;;;;;;;1.93;78.32;98339.52;106171;1274;108377;-70
2022/01/28 01:12:54;;;;;;;32.70;15.20;;;;;;;1.90;78.17;98339.33;106081;1274;99255;-70
2022/01/28 01:15:31;;;;;;;31.90;14.20;;;;;;;1.86;78.36;98334.83;106127;1274;99252;-68
2022/01/28 01:23:24;;;;;;;32.90;14.40;;;;;;;1.85;78.36;98328.06;106027;1274;107777;-69
2022/01/28 01:26:07;;;;;;;30.00;13.90;;;;;;;1.85;78.28;98323.02;105999;1274;99271;-69
2022/01/28 01:28:40;;;;;;;30.70;14.20;;;;;;;1.84;78.37;98323.04;106056;1274;99316;-70
2022/01/28 01:31:17;;;;;;;23.40;11.00;;;;;;;1.84;78.48;98322.34;106101;1273;112091;-69
2022/01/28 01:33:54;;;;;;;30.80;13.80;;;;;;;1.82;78.44;98325.06;105948;1274;99384;-69
2022/01/28 01:36:24;;;;;;;25.90;11.00;;;;;;;1.84;78.27;98326.36;106005;1274;107550;-70
2022/01/28 01:38:53;;;;;;;24.20;9.50;;;;;;;1.86;78.61;98326.77;106076;1274;99259;-70
2022/01/28 01:41:32;;;;;;;23.00;9.00;;;;;;;1.89;78.74;98333.60;106176;1274;100049;-68
2022/01/28 01:54:37;;;;;;;18.40;7.40;;;;;;;2.12;78.61;98313.96;106014;1274;99027;-70
2022/01/28 01:57:09;;;;;;;16.80;7.40;;;;;;;2.14;78.67;98302.49;106031;1274;111979;-69
2022/01/28 01:59:41;;;;;;;18.30;7.10;;;;;;;2.16;78.59;98302.77;106038;1274;99208;-69
2022/01/28 02:02:13;;;;;;;18.40;7.70;;;;;;;2.18;78.68;98298.25;106086;1274;107637;-70
2022/01/28 02:04:41;;;;;;;18.10;7.10;;;;;;;2.21;78.62;98302.33;106075;1274;99313;-71
2022/01/28 02:07:16;;;;;;;18.60;7.40;;;;;;;2.23;78.78;98284.58;105903;1274;99268;-70
2022/01/28 02:09:44;;;;;;;19.60;7.70;;;;;;;2.24;78.40;98284.69;106109;1274;112384;-69
2022/01/28 02:12:12;;;;;;;18.30;7.00;;;;;;;2.25;78.45;98280.27;106087;1272;99247;-69
2022/01/28 02:14:43;;;;;;;18.20;7.50;;;;;;;2.27;78.58;98285.61;106147;1274;107817;-69
2022/01/28 02:17:15;;;;;;;19.20;7.60;;;;;;;2.28;78.61;98275.02;106058;1274;99396;-69
2022/01/28 02:19:42;;;;;;;18.80;6.80;;;;;;;2.31;78.18;98270.19;106199;1274;96646;-70
2022/01/28 02:22:11;;;;;;;17.10;6.60;;;;;;;2.31;78.51;98272.59;106094;1274;112736;-69
2022/01/28 02:24:44;;;;;;;17.70;6.80;;;;;;;2.32;78.25;98275.17;106155;1273;99336;-71
2022/01/28 02:27:16;;;;;;;18.60;7.00;;;;;;;2.32;78.38;98277.42;106075;1274;107289;-69
2022/01/28 02:29:49;;;;;;;19.40;7.10;;;;;;;2.32;78.54;98279.73;106138;1273;99273;-71
2022/01/28 02:32:20;;;;;;;17.90;7.20;;;;;;;2.33;78.39;98275.48;106161;1274;99306;-71
2022/01/28 02:34:48;;;;;;;18.40;6.70;;;;;;;2.33;78.28;98280.69;106022;1274;113351;-69
2022/01/28 02:37:17;;;;;;;16.80;6.50;;;;;;;2.34;78.46;98276.13;106232;1274;97664;-70
2022/01/28 02:39:44;;;;;;;17.40;7.40;;;;;;;2.34;78.46;98274.55;106112;1274;108431;-69
2022/01/28 02:42:19;;;;;;;16.50;6.70;;;;;;;2.34;78.24;98276.09;106100;1274;99215;-69
2022/01/28 02:44:51;;;;;;;18.80;6.70;;;;;;;2.35;78.33;98265.74;106031;1274;97842;-69
2022/01/28 02:47:31;;;;;;;16.20;5.80;;;;;;;2.35;78.42;98266.61;106007;1272;113345;-69
2022/01/28 02:49:59;;;;;;;17.00;6.70;;;;;;;2.36;78.44;98252.91;105967;1274;97899;-70
2022/01/28 02:52:38;;;;;;;17.40;6.60;;;;;;;2.36;78.28;98256.21;106029;1274;108036;-69
2022/01/28 02:55:10;;;;;;;19.10;7.00;;;;;;;2.36;78.38;98246.63;106032;1274;97931;-68
2022/01/28 02:57:50;;;;;;;17.40;6.60;;;;;;;2.36;78.34;98242.27;106077;1274;99338;-68
2022/01/28 03:00:18;;;;;;;16.90;6.80;;;;;;;2.35;78.40;98243.14;106035;1274;112185;-70
2022/01/28 03:02:46;;;;;;;18.20;6.30;;;;;;;2.38;78.42;98241.83;106019;1274;99332;-69
2022/01/28 03:07:52;;;;;;;16.70;6.10;;;;;;;2.40;78.15;98250.10;106169;1274;99346;-67
2022/01/28 03:10:31;;;;;;;15.30;5.90;;;;;;;2.41;78.63;98250.04;106180;1274;99203;-67
2022/01/28 03:15:46;;;;;;;15.90;6.00;;;;;;;2.41;78.04;98259.32;106051;1274;96527;-69
2022/01/28 03:18:20;;;;;;;13.80;5.30;;;;;;;2.42;78.15;98253.50;106097;1274;107745;-69
2022/01/28 03:23:22;;;;;;;15.00;6.00;;;;;;;2.48;78.32;98238.63;106080;1274;99821;-68
2022/01/28 03:25:50;;;;;;;13.90;5.80;;;;;;;2.52;77.85;98245.98;106061;1274;113102;-71
2022/01/28 03:28:20;;;;;;;14.10;6.10;;;;;;;2.56;77.71;98242.08;106120;1274;99249;-69
2022/01/28 03:30:48;;;;;;;16.10;6.60;;;;;;;2.61;77.86;98246.22;105862;1274;249493;-68
2022/01/28 03:33:16;;;;;;;16.00;5.40;;;;;;;2.63;77.80;98241.52;106085;1274;99308;-68
2022/01/28 03:35:44;;;;;;;18.10;5.50;;;;;;;2.64;77.63;98239.04;106073;1274;99354;-69
2022/01/28 03:38:13;;;;;;;15.20;6.00;;;;;;;2.65;77.56;98234.60;106115;1273;113290;-68
2022/01/28 03:40:42;;;;;;;14.40;5.80;;;;;;;2.64;77.40;98236.02;106154;1274;99223;-70
2022/01/28 03:43:10;;;;;;;17.90;6.60;;;;;;;2.65;77.57;98235.84;106091;1274;108742;-70
2022/01/28 03:45:38;;;;;;;15.00;6.60;;;;;;;2.64;76.58;98246.38;106075;1274;99189;-69
2022/01/28 03:48:06;;;;;;;16.20;6.50;;;;;;;2.65;77.34;98237.00;106076;1274;99259;-69
2022/01/28 03:50:34;;;;;;;15.60;6.20;;;;;;;2.66;76.85;98237.33;106077;1272;112804;-70
2022/01/28 03:53:04;;;;;;;18.80;6.40;;;;;;;2.65;76.47;98228.25;106122;1274;99255;-68
2022/01/28 03:55:33;;;;;;;14.20;5.80;;;;;;;2.63;77.17;98227.86;106058;1273;108415;-67
2022/01/28 03:58:02;;;;;;;17.70;6.40;;;;;;;2.62;76.91;98231.08;106109;1274;100446;-68
2022/01/28 04:00:31;;;;;;;14.50;6.30;;;;;;;2.60;76.94;98228.89;106118;1274;96673;-67
2022/01/28 04:03:37;;;;;;;13.60;5.20;;;;;;;2.59;76.91;98222.84;106080;1274;112481;-70
2022/01/28 04:14:21;;;;;;;14.20;5.60;;;;;;;2.55;77.02;98205.54;106124;1274;99354;-68
2022/01/28 04:19:36;;;;;;;15.20;5.60;;;;;;;2.53;76.72;98208.61;106106;1274;99307;-69
2022/01/28 04:22:05;;;;;;;12.50;5.70;;;;;;;2.53;76.61;98212.14;106139;1274;107623;-69
2022/01/28 04:24:33;;;;;;;14.20;6.50;;;;;;;2.52;76.79;98215.00;106181;1273;99246;-70
2022/01/28 04:27:01;;;;;;;14.50;5.90;;;;;;;2.52;76.30;98218.49;106122;1274;99131;-69
2022/01/28 04:29:28;;;;;;;14.70;5.80;;;;;;;2.55;75.98;98221.33;106078;1273;112847;-70
2022/01/28 04:31:56;;;;;;;12.90;5.10;;;;;;;2.57;76.37;98212.11;106159;1274;96542;-70
2022/01/28 04:34:25;;;;;;;14.80;5.40;;;;;;;2.59;76.12;98208.65;106102;1274;107583;-69
2022/01/28 04:37:08;;;;;;;12.10;4.70;;;;;;;2.61;75.99;98208.75;106101;1274;96591;-69
2022/01/28 04:42:24;;;;;;;14.80;5.60;;;;;;;2.64;76.17;98199.66;106215;1273;113337;-69
2022/01/28 04:45:17;;;;;;;11.10;4.70;;;;;;;2.64;75.59;98200.15;106120;1274;99299;-70
2022/01/28 04:47:59;;;;;;;10.20;4.20;;;;;;;2.64;75.69;98194.36;106160;1274;107786;-69
2022/01/28 04:58:25;;;;;;;9.70;4.00;;;;;;;2.61;75.80;98186.86;106067;1274;99044;-69
2022/01/28 05:27:45;;;;;;;10.80;4.50;;;;;;;2.64;74.93;98182.48;106088;1274;108266;-69
2022/01/28 05:30:13;;;;;;;14.40;4.50;;;;;;;2.66;74.41;98181.15;106051;1274;99337;-69
2022/01/28 05:32:42;;;;;;;11.80;4.10;;;;;;;2.67;74.35;98185.83;106140;1274;99214;-69
2022/01/28 05:35:10;;;;;;;8.50;3.40;;;;;;;2.70;74.29;98180.96;105977;1274;112357;-70
2022/01/28 05:37:38;;;;;;;13.00;4.40;;;;;;;2.71;74.29;98175.65;106076;1274;96738;-70
2022/01/28 05:40:06;;;;;;;10.00;4.00;;;;;;;2.72;74.49;98172.41;105956;1274;108479;-69
2022/01/28 05:42:34;;;;;;;8.60;4.00;;;;;;;2.73;74.57;98179.71;106110;1274;99314;-70
2022/01/28 05:45:03;;;;;;;15.20;4.50;;;;;;;2.73;74.45;98171.83;106092;1274;99332;-69
2022/01/28 05:47:35;;;;;;;11.80;4.20;;;;;;;2.73;73.80;98170.27;106104;1272;112427;-69
2022/01/28 05:50:05;;;;;;;14.70;4.50;;;;;;;2.72;74.26;98174.69;106083;1274;99238;-67
2022/01/28 05:52:33;;;;;;;14.00;4.80;;;;;;;2.73;74.27;98169.60;106084;1274;107757;-70
2022/01/28 05:55:01;;;;;;;12.40;4.40;;;;;;;2.73;74.34;98164.52;106078;1273;99312;-70
2022/01/28 05:57:30;;;;;;;13.80;4.50;;;;;;;2.70;73.79;98169.01;106132;1274;99220;-69
2022/01/28 05:59:58;;;;;;;11.10;3.80;;;;;;;2.67;73.75;98180.55;106104;1274;113440;-69
2022/01/28 06:02:26;;;;;;;16.10;4.30;;;;;;;2.62;74.23;98166.33;106045;1274;99197;-69
2022/01/28 06:04:56;;;;;;;9.80;3.60;;;;;;;2.57;74.07;98176.59;106065;1274;108405;-69
2022/01/28 06:07:24;;;;;;;11.70;3.90;;;;;;;2.51;73.96;98181.08;106055;1274;96643;-69
2022/01/28 06:09:52;;;;;;;11.20;3.90;;;;;;;2.46;74.04;98183.80;106094;1274;96714;-69
2022/01/28 06:12:20;;;;;;;9.50;4.00;;;;;;;2.41;74.10;98187.77;106115;1274;112212;-70
2022/01/28 06:14:48;;;;;;;10.40;3.60;;;;;;;2.35;73.90;98187.72;106105;1274;98332;-70
2022/01/28 06:17:16;;;;;;;6.60;3.20;;;;;;;2.29;74.02;98201.98;106062;1274;107825;-69
2022/01/28 06:19:44;;;;;;;10.40;4.00;;;;;;;2.22;74.42;98199.95;106062;1274;97857;-72
2022/01/28 06:22:12;;;;;;;7.10;3.20;;;;;;;2.14;74.55;98196.67;106052;1274;99274;-70
2022/01/28 06:24:40;;;;;;;8.90;4.00;;;;;;;2.10;74.55;98204.41;106023;1274;112454;-69
2022/01/28 06:27:09;;;;;;;8.80;3.60;;;;;;;2.07;74.49;98196.14;106139;1274;96595;-71
2022/01/28 06:29:36;;;;;;;12.50;4.70;;;;;;;2.05;74.55;98196.63;106155;1274;107676;-70
2022/01/28 06:32:05;;;;;;;10.90;3.90;;;;;;;2.03;74.41;98198.46;106159;1274;97863;-68
2022/01/28 06:34:33;;;;;;;11.70;3.40;;;;;;;2.00;74.82;98194.59;106227;1274;96642;-69
2022/01/28 06:37:02;;;;;;;9.30;4.40;;;;;;;1.97;74.90;98196.87;106171;1274;113260;-69
2022/01/28 06:39:33;;;;;;;10.00;3.70;;;;;;;1.96;74.70;98193.09;106173;1274;99242;-69
2022/01/28 06:42:01;;;;;;;9.10;3.50;;;;;;;1.96;75.00;98205.15;106193;1274;107557;-70
2022/01/28 06:44:30;;;;;;;9.90;3.20;;;;;;;1.96;74.89;98203.89;106145;1274;97353;-69
2022/01/28 06:46:58;;;;;;;7.50;2.90;;;;;;;1.97;74.97;98201.08;106192;1274;98080;-70
2022/01/28 06:49:31;;;;;;;9.90;3.10;;;;;;;1.97;74.76;98205.77;106163;1274;112736;-70
2022/01/28 06:52:00;;;;;;;7.40;2.90;;;;;;;1.96;75.10;98205.28;106115;1274;99115;-71
2022/01/28 06:54:27;;;;;;;9.90;3.30;;;;;;;1.95;75.17;98208.32;106102;1273;106755;-69
2022/01/28 06:56:55;;;;;;;13.40;3.70;;;;;;;1.94;75.01;98209.95;106089;1274;99161;-69
2022/01/28 06:59:23;;;;;;;7.40;3.00;;;;;;;1.93;75.10;98218.90;106148;1274;99300;-69
2022/01/28 07:01:53;;;;;;;12.10;3.70;;;;;;;1.91;74.90;98214.98;106127;1273;112639;-69
2022/01/28 07:04:23;;;;;;;11.30;3.50;;;;;;;1.91;75.25;98218.66;106091;1272;97582;-69
2022/01/28 07:06:51;;;;;;;12.10;3.70;;;;;;;1.88;75.04;98216.17;105990;1274;108476;-69
2022/01/28 07:09:22;;;;;;;6.90;3.00;;;;;;;1.87;75.18;98213.61;106054;1273;99788;-70
2022/01/28 07:11:52;;;;;;;8.90;3.50;;;;;;;1.85;75.69;98219.68;106085;1274;101095;-70
2022/01/28 07:14:20;;;;;;;9.30;3.20;;;;;;;1.81;75.59;98219.17;106093;1273;113195;-71
2022/01/28 07:16:48;;;;;;;10.70;3.10;;;;;;;1.77;75.23;98213.92;106082;1274;97897;-70
2022/01/28 07:19:16;;;;;;;8.50;2.90;;;;;;;1.76;75.25;98210.49;106016;1274;108381;-72
2022/01/28 07:21:44;;;;;;;10.00;4.20;;;;;;;1.74;75.78;98208.48;106086;1273;99349;-73
2022/01/28 07:24:12;;;;;;;10.20;3.40;;;;;;;1.73;75.41;98217.48;106061;1274;99234;-73
2022/01/28 07:26:46;;;;;;;10.50;3.90;;;;;;;1.72;75.50;98215.25;106152;1274;114007;-69
2022/01/28 07:29:14;;;;;;;10.50;3.60;;;;;;;1.73;75.83;98221.66;106053;1274;99262;-72
2022/01/28 07:31:43;;;;;;;7.80;3.10;;;;;;;1.71;75.65;98220.55;106064;1274;107630;-71
2022/01/28 07:34:13;;;;;;;9.00;3.20;;;;;;;1.69;75.79;98230.42;106169;1274;99319;-71
2022/01/28 07:36:47;;;;;;;8.50;3.10;;;;;;;1.64;75.77;98225.08;106109;1274;99215;-69
2022/01/28 07:39:16;;;;;;;11.60;3.50;;;;;;;1.61;75.78;98231.88;106103;1273;114468;-71
2022/01/28 07:41:44;;;;;;;4.00;2.50;;;;;;;1.58;75.58;98232.34;106125;1274;99428;-71
2022/01/28 07:44:12;;;;;;;8.50;2.90;;;;;;;1.57;75.99;98232.95;106184;1274;107448;-70
2022/01/28 07:46:40;;;;;;;8.60;3.40;;;;;;;1.53;76.37;98232.77;106065;1274;99306;-68
2022/01/28 07:49:15;;;;;;;9.90;4.00;;;;;;;1.50;76.20;98225.23;106077;1274;99221;-70
2022/01/28 07:51:44;;;;;;;12.80;5.00;;;;;;;1.48;76.10;98237.02;106064;1274;112774;-68
2022/01/28 07:54:17;;;;;;;9.90;3.60;;;;;;;1.49;76.72;98237.52;106074;1273;99033;-70
2022/01/28 07:56:47;;;;;;;9.50;3.70;;;;;;;1.51;76.31;98232.70;106242;1274;106340;-71
2022/01/28 07:59:15;;;;;;;11.40;3.80;;;;;;;1.52;76.47;98234.02;106137;1274;99239;-69
2022/01/28 08:01:43;;;;;;;10.20;4.00;;;;;;;1.55;76.67;98241.23;106043;1273;97844;-71
2022/01/28 08:04:11;;;;;;;10.40;3.70;;;;;;;1.57;76.39;98243.57;105988;1274;113376;-68
2022/01/28 08:06:40;;;;;;;15.10;4.90;;;;;;;1.60;76.20;98248.32;106019;1274;99300;-68
2022/01/28 08:09:08;;;;;;;11.80;4.20;;;;;;;1.61;76.85;98244.98;106074;1273;107733;-69
2022/01/28 08:11:37;;;;;;;11.40;3.90;;;;;;;1.60;76.74;98247.63;105994;1274;99248;-71
2022/01/28 08:14:05;;;;;;;12.50;4.00;;;;;;;1.60;76.58;98250.63;106008;1274;99335;-71
2022/01/28 08:16:35;;;;;;;10.20;3.90;;;;;;;1.57;76.90;98249.52;105839;1274;115345;-69
2022/01/28 08:19:03;;;;;;;12.20;4.60;;;;;;;1.56;76.58;98257.45;106189;1274;99208;-69
2022/01/28 08:21:31;;;;;;;15.60;4.90;;;;;;;1.55;76.49;98256.78;106185;1273;108376;-70
2022/01/28 08:23:59;;;;;;;11.50;4.40;;;;;;;1.57;76.70;98259.16;106149;1272;99237;-71
2022/01/28 08:26:27;;;;;;;14.50;4.10;;;;;;;1.58;77.16;98261.89;106135;1274;100064;-70
2022/01/28 08:28:57;;;;;;;12.50;4.90;;;;;;;1.60;77.02;98263.19;106109;1273;112767;-71
2022/01/28 08:31:25;;;;;;;14.10;5.00;;;;;;;1.61;77.01;98261.06;106138;1274;99304;-70
2022/01/28 08:33:56;;;;;;;13.00;4.40;;;;;;;1.61;76.93;98260.71;106089;1274;108322;-70
2022/01/28 08:36:29;;;;;;;15.50;5.10;;;;;;;1.62;77.02;98271.81;106124;1274;97838;-69
2022/01/28 08:38:57;;;;;;;12.60;4.60;;;;;;;1.64;76.99;98268.41;106114;1274;99250;-71
2022/01/28 08:41:28;;;;;;;16.30;4.90;;;;;;;1.65;77.24;98268.72;106083;1274;111512;-69
2022/01/28 08:43:55;;;;;;;14.40;4.40;;;;;;;1.66;76.89;98272.35;106060;1273;99907;-70
2022/01/28 08:46:25;;;;;;;12.70;4.40;;;;;;;1.67;76.96;98275.80;106059;1274;105859;-70
2022/01/28 08:48:53;;;;;;;14.00;4.80;;;;;;;1.68;77.22;98273.29;105922;1272;99359;-70
2022/01/28 08:51:24;;;;;;;14.20;5.30;;;;;;;1.70;76.99;98280.54;106072;1274;99205;-70
2022/01/28 08:53:54;;;;;;;17.60;5.90;;;;;;;1.72;77.15;98274.15;106074;1273;113306;-70
2022/01/28 08:56:25;;;;;;;13.40;5.60;;;;;;;1.74;77.25;98275.45;106138;1273;99249;-70
2022/01/28 08:58:53;;;;;;;17.50;5.60;;;;;;;1.76;77.31;98280.23;106097;1274;108792;-68
2022/01/28 09:01:21;;;;;;;14.10;4.30;;;;;;;1.79;77.35;98272.39;106036;1274;96630;-70
2022/01/28 09:03:52;;;;;;;14.50;4.70;;;;;;;1.82;77.30;98273.70;106070;1274;99204;-72
2022/01/28 09:06:26;;;;;;;19.90;6.20;;;;;;;1.84;76.90;98277.92;106055;1273;112820;-71
2022/01/28 09:08:58;;;;;;;15.90;4.80;;;;;;;1.87;77.22;98284.60;106039;1272;99335;-72
2022/01/28 09:11:33;;;;;;;13.00;5.20;;;;;;;1.87;77.20;98281.60;106109;1274;107468;-71
2022/01/28 09:14:02;;;;;;;17.30;5.80;;;;;;;1.89;77.09;98278.18;106155;1274;99322;-72
2022/01/28 09:16:34;;;;;;;16.50;6.10;;;;;;;1.92;76.89;98285.58;106159;1274;99229;-71
2022/01/28 09:19:02;;;;;;;15.80;4.90;;;;;;;1.95;76.86;98276.16;106218;1274;111701;-71
2022/01/28 09:21:30;;;;;;;16.00;5.40;;;;;;;1.97;76.92;98281.11;106231;1273;99307;-69
2022/01/28 09:23:58;;;;;;;16.90;5.60;;;;;;;1.98;77.00;98282.65;106181;1274;107727;-71
2022/01/28 09:26:29;;;;;;;20.40;6.70;;;;;;;2.00;77.09;98286.96;106044;1274;99301;-73
2022/01/28 09:29:00;;;;;;;18.50;5.70;;;;;;;1.99;77.12;98289.40;106203;1274;99182;-73
2022/01/28 09:31:37;;;;;;;14.80;5.90;;;;;;;2.00;77.00;98289.88;106216;1272;112742;-72
2022/01/28 09:34:05;;;;;;;14.80;4.50;;;;;;;2.00;76.93;98292.17;106163;1274;99186;-71
2022/01/28 09:36:33;;;;;;;18.40;7.40;;;;;;;1.99;77.51;98296.27;106151;1274;107736;-70
2022/01/28 09:39:02;;;;;;;16.50;5.90;;;;;;;1.98;77.26;98296.51;106073;1274;99369;-70
2022/01/28 09:41:30;;;;;;;17.30;5.60;;;;;;;1.94;77.27;98298.75;106180;1274;99293;-69
2022/01/28 09:44:06;;;;;;;16.40;5.10;;;;;;;1.89;77.25;98297.23;106052;1274;112720;-69
2022/01/28 09:46:35;;;;;;;12.90;4.70;;;;;;;1.85;77.55;98304.25;106063;1274;99321;-70
2022/01/28 09:49:03;;;;;;;16.60;6.00;;;;;;;1.83;77.60;98290.23;106223;1274;107881;-71
2022/01/28 09:51:31;;;;;;;18.70;6.30;;;;;;;1.80;77.43;98307.66;106244;1274;99399;-72
2022/01/28 09:54:04;;;;;;;19.10;6.10;;;;;;;1.78;77.51;98304.27;106193;1274;99198;-74
2022/01/28 09:56:32;;;;;;;16.00;5.70;;;;;;;1.77;77.39;98303.77;106125;1273;112856;-70
2022/01/28 09:59:03;;;;;;;19.00;6.50;;;;;;;1.79;77.63;98303.17;106090;1273;99212;-71
2022/01/28 10:01:31;;;;;;;20.40;6.90;;;;;;;1.78;77.85;98305.84;106082;1274;107675;-71
2022/01/28 10:04:07;;;;;;;16.10;5.20;;;;;;;1.76;77.63;98306.29;106212;1273;99339;-72
2022/01/28 10:06:48;;;;;;;19.80;6.30;;;;;;;1.74;77.83;98310.05;106040;1274;99158;-70
2022/01/28 10:09:19;;;;;;;15.50;5.70;;;;;;;1.72;77.67;98311.88;105975;1274;112795;-72
2022/01/28 10:11:55;;;;;;;16.60;5.00;;;;;;;1.72;77.92;98311.38;106111;1274;97651;-72
2022/01/28 10:14:28;;;;;;;19.90;5.80;;;;;;;1.71;77.63;98312.11;106094;1273;108145;-74
2022/01/28 10:17:02;;;;;;;15.80;5.60;;;;;;;1.70;77.98;98316.70;106128;1274;99296;-72
2022/01/28 10:19:42;;;;;;;18.60;5.80;;;;;;;1.70;78.01;98320.92;106121;1274;99239;-70
2022/01/28 10:22:19;;;;;;;17.30;6.10;;;;;;;1.67;77.97;98311.63;106098;1273;112765;-71
2022/01/28 10:25:25;;;;;;;16.60;5.90;;;;;;;1.68;77.85;98319.10;106111;1274;99116;-71
2022/01/28 10:27:57;;;;;;;15.80;5.30;;;;;;;1.68;77.95;98323.09;106080;1272;106330;-73
2022/01/28 10:30:28;;;;;;;17.80;5.70;;;;;;;1.69;77.73;98325.16;106125;1274;99172;-70
2022/01/28 10:33:19;;;;;;;19.30;5.60;;;;;;;1.70;77.93;98323.54;106025;1274;99242;-71
2022/01/28 10:36:02;;;;;;;14.80;5.40;;;;;;;1.71;78.45;98326.63;106168;1274;112663;-72
2022/01/28 10:38:34;;;;;;;13.10;5.10;;;;;;;1.70;78.43;98325.60;106187;1274;99293;-72
2022/01/28 10:41:20;;;;;;;13.20;4.50;;;;;;;1.70;78.18;98326.86;105971;1274;109445;-71
2022/01/28 10:43:55;;;;;;;22.40;6.50;;;;;;;1.70;78.12;98332.80;106100;1274;99333;-70
2022/01/28 10:46:33;;;;;;;15.60;5.60;;;;;;;1.70;78.25;98329.48;106108;1272;99233;-71
2022/01/28 10:49:08;;;;;;;16.40;6.40;;;;;;;1.71;77.95;98327.70;106077;1274;112835;-70
2022/01/28 10:51:44;;;;;;;18.50;5.80;;;;;;;1.71;78.22;98337.98;106095;1273;99279;-70
2022/01/28 10:54:25;;;;;;;19.40;6.70;;;;;;;1.70;78.35;98342.41;106084;1274;107742;-70
2022/01/28 10:56:57;;;;;;;17.00;5.50;;;;;;;1.70;78.15;98338.05;105955;1274;99316;-71
2022/01/28 10:59:38;;;;;;;17.70;6.30;;;;;;;1.71;78.22;98335.73;106112;1274;99233;-72
2022/01/28 11:02:07;;;;;;;18.50;6.20;;;;;;;1.69;78.66;98342.63;105853;1274;112749;-71
2022/01/28 11:04:39;;;;;;;18.90;6.60;;;;;;;1.67;78.47;98346.39;105875;1274;98788;-72
2022/01/28 11:07:11;;;;;;;17.20;5.30;;;;;;;1.65;78.28;98338.77;106030;1274;106418;-71
2022/01/28 11:09:43;;;;;;;14.90;5.50;;;;;;;1.66;78.36;98335.45;106143;1274;99241;-71
2022/01/28 11:12:14;;;;;;;21.80;6.30;;;;;;;1.65;78.61;98335.10;106116;1274;97837;-70
2022/01/28 11:14:44;;;;;;;23.10;6.80;;;;;;;1.64;78.26;98348.80;106119;1274;112387;-72
2022/01/28 11:17:20;;;;;;;19.60;7.20;;;;;;;1.63;78.88;98343.59;106085;1274;99240;-71
2022/01/28 11:19:55;;;;;;;19.70;7.60;;;;;;;1.61;78.44;98346.33;105969;1274;107714;-70
2022/01/28 11:22:43;;;;;;;18.00;6.10;;;;;;;1.60;78.24;98349.70;106027;1274;99217;-70
2022/01/28 11:25:35;;;;;;;18.30;6.80;;;;;;;1.59;78.76;98353.39;106033;1274;99316;-69
2022/01/28 11:28:07;;;;;;;16.20;6.30;;;;;;;1.58;78.95;98359.59;106067;1274;112664;-70
2022/01/28 11:30:47;;;;;;;19.00;6.30;;;;;;;1.57;78.65;98364.71;106073;1274;99247;-71
2022/01/28 11:33:18;;;;;;;18.10;6.40;;;;;;;1.55;78.75;98367.76;106092;1274;106707;-71
2022/01/28 11:35:46;;;;;;;20.60;7.30;;;;;;;1.54;78.63;98362.76;106121;1274;99320;-71
2022/01/28 11:38:29;;;;;;;19.20;6.70;;;;;;;1.53;78.59;98373.44;106269;1273;99101;-70
2022/01/28 11:40:59;;;;;;;21.50;7.20;;;;;;;1.52;78.80;98376.64;106037;1274;112719;-71
2022/01/28 11:43:47;;;;;;;16.30;5.80;;;;;;;1.52;78.63;98374.91;106183;1273;99217;-70
2022/01/28 11:46:37;;;;;;;18.50;7.20;;;;;;;1.52;78.76;98372.27;106082;1274;107643;-70
2022/01/28 11:49:07;;;;;;;18.20;6.30;;;;;;;1.52;78.83;98381.71;106151;1273;99268;-68
2022/01/28 11:51:41;;;;;;;19.20;6.60;;;;;;;1.52;78.58;98378.90;106107;1274;99222;-71
2022/01/28 11:54:20;;;;;;;15.00;5.30;;;;;;;1.53;78.77;98388.30;106132;1274;112762;-68
2022/01/28 11:56:56;;;;;;;21.10;7.20;;;;;;;1.54;78.88;98391.73;106063;1274;99177;-70
2022/01/28 11:59:33;;;;;;;16.50;6.30;;;;;;;1.55;79.02;98400.27;106095;1274;108325;-69
2022/01/28 12:02:00;;;;;;;18.20;6.80;;;;;;;1.55;78.82;98398.54;106115;1274;100023;-70
2022/01/28 12:04:40;;;;;;;20.80;7.40;;;;;;;1.55;78.99;98400.45;106052;1274;99204;-71
2022/01/28 12:07:18;;;;;;;19.70;6.80;;;;;;;1.54;79.05;98405.92;106040;1273;112689;-70
2022/01/28 12:09:55;;;;;;;18.50;6.90;;;;;;;1.50;78.72;98408.00;106062;1274;99333;-70
2022/01/28 12:12:44;;;;;;;18.30;6.60;;;;;;;1.49;78.71;98407.70;106023;1274;107766;-71
2022/01/28 12:15:19;;;;;;;23.40;9.30;;;;;;;1.49;78.88;98414.83;106089;1274;99211;-70
2022/01/28 12:17:51;;;;;;;20.20;8.10;;;;;;;1.49;78.85;98419.38;106082;1273;99216;-68
2022/01/28 12:20:47;;;;;;;20.20;7.40;;;;;;;1.50;79.22;98427.41;106143;1274;114109;-69
2022/01/28 12:23:18;;;;;;;19.40;7.40;;;;;;;1.49;78.96;98444.20;106066;1274;96550;-70
2022/01/28 12:25:51;;;;;;;19.70;6.90;;;;;;;1.48;78.96;98447.59;106006;1273;107764;-70
2022/01/28 12:28:23;;;;;;;22.10;7.60;;;;;;;1.46;79.21;98448.55;106067;1274;99365;-69
2022/01/28 12:31:17;;;;;;;22.30;7.70;;;;;;;1.44;78.89;98458.95;106087;1274;99293;-70
2022/01/28 12:33:53;;;;;;;20.80;7.90;;;;;;;1.41;78.91;98461.02;106166;1274;112767;-68
2022/01/28 12:36:23;;;;;;;16.30;7.30;;;;;;;1.41;79.17;98461.70;106277;1273;99396;-69
2022/01/28 12:42:03;;;;;;;25.80;11.60;;;;;;;1.40;78.90;98476.98;106157;1274;99221;-67
2022/01/28 12:44:38;;;;;;;24.50;10.20;;;;;;;1.40;78.80;98475.90;106123;1274;99323;-70
2022/01/28 12:47:10;;;;;;;23.00;8.90;;;;;;;1.38;79.07;98483.66;106027;1274;112736;-69
2022/01/28 12:49:39;;;;;;;22.80;8.10;;;;;;;1.32;79.07;98492.84;106212;1274;99183;-68
2022/01/28 12:52:09;;;;;;;21.20;7.50;;;;;;;1.27;79.19;98496.73;106073;1274;108286;-69
2022/01/28 12:54:43;;;;;;;18.10;6.70;;;;;;;1.24;79.15;98497.72;105735;1274;100280;-69
2022/01/28 12:57:20;;;;;;;19.30;7.50;;;;;;;1.20;79.12;98502.27;105920;1274;99251;-69
2022/01/28 12:59:50;;;;;;;20.70;7.50;;;;;;;1.19;79.17;98507.58;105962;1274;111410;-69
2022/01/28 13:02:19;;;;;;;20.60;7.60;;;;;;;1.20;79.24;98511.36;106192;1274;99769;-71
2022/01/28 13:09:55;;;;;;;19.40;7.10;;;;;;;1.26;79.64;98522.98;106100;1274;99195;-69
2022/01/28 13:12:31;;;;;;;16.70;5.60;;;;;;;1.29;79.53;98524.24;106033;1274;112771;-71
2022/01/28 13:15:08;;;;;;;15.80;5.70;;;;;;;1.31;79.53;98528.52;106133;1274;99304;-68
2022/01/28 13:17:36;;;;;;;16.40;5.90;;;;;;;1.34;79.49;98539.23;106071;1274;107640;-67
2022/01/28 13:20:09;;;;;;;15.20;6.10;;;;;;;1.37;79.51;98538.95;106165;1273;99145;-69
2022/01/28 13:22:39;;;;;;;16.70;5.70;;;;;;;1.38;79.32;98542.72;106159;1273;99227;-69